Portada
METAR-TAF:

METAR-TAF

Aeroports :

Aeroport de Ouarzazate

Ouarzazate, Marroc

latitud: 30-56N, longitud: 006-54W, altitud: 1139 m

Observació

L'informe es va fer fa 24 minuts, a les 17:00 UTC
Vent 3 kt del Nord-Est
Temperatura 27°C
Humitat 3%
Pressió 1019 hPa
Visibilitat 10 km o més
sense núvols per sota de 1500 mi sense presència de cumulonimbus.

METAR: GMMZ 261700Z 04003KT CAVOK 27/M20 Q1019 NOSIG

Hora: 18:24 (17:24 UTC)

Pronòstic

L'informe es va fer fa 6 hores i 24 minuts, a les 11:00 UTC
Pronòstic vàlid del 26 a les 12 UTC al 27 a les 18 UTC
Vent 2 kt amb direcció variable
Visibilitat 10 km o més
sense núvols per sota de 1500 mi sense presència de cumulonimbus.

TAF: GMMZ 261100Z 2612/2718 VRB02KT CAVOK

Observacions i pronòstics meteorològics de més de 4000 aeroports (METAR i TAF).

Les estacions disponibles són els punts grocs i vermells al mapa.

Posi el ratolí al punt desitjat per veure el nom de l'estació.

Feu clic per veure les observacions i els pronòstics meteorològics.

Per canviar el mapa: feu clic els botons verds amb una creu de color negre per apropar; al botó verd amb un guió per allunyar la imatge; o en les fletxes verdes per a mapes adjacents.


METAR-TAF: